createdAt,value
2023-05-04T00:01:15.549Z,0.50
2023-05-04T00:03:17.357Z,0.43
2023-05-04T00:05:18.987Z,0.40
2023-05-04T00:07:20.803Z,0.50
2023-05-04T00:09:22.448Z,0.40
2023-05-04T00:11:24.100Z,0.40
2023-05-04T00:13:25.664Z,0.60
2023-05-04T00:15:28.066Z,0.40
2023-05-04T00:17:29.642Z,0.38
2023-05-04T00:19:31.149Z,0.50
2023-05-04T00:21:32.835Z,0.30
2023-05-04T00:23:34.383Z,0.40
2023-05-04T00:25:36.323Z,0.40
2023-05-04T00:27:38.169Z,0.30
2023-05-04T00:29:40.106Z,0.43
2023-05-04T00:31:41.915Z,0.40
2023-05-04T00:33:43.469Z,0.35
2023-05-04T00:35:45.161Z,0.40
2023-05-04T00:37:46.864Z,0.47
2023-05-04T00:39:48.479Z,0.40
2023-05-04T00:41:49.983Z,0.38
2023-05-04T00:43:51.871Z,0.50
2023-05-04T00:45:53.429Z,0.32
2023-05-04T00:47:55.922Z,0.43
2023-05-04T00:49:57.633Z,0.40
2023-05-04T00:52:02.191Z,0.40
2023-05-04T00:54:04.162Z,0.40
2023-05-04T00:56:07.535Z,0.50
2023-05-04T00:58:09.276Z,0.40
2023-05-04T01:00:13.244Z,0.35
2023-05-04T01:02:14.743Z,0.50
2023-05-04T01:04:16.751Z,0.40
2023-05-04T01:06:25.926Z,0.30
2023-05-04T01:08:32.218Z,0.50
2023-05-04T01:11:12.167Z,0.40
2023-05-04T01:13:16.524Z,0.30
2023-05-04T01:15:20.331Z,0.38
2023-05-04T01:17:21.986Z,0.40
2023-05-04T01:19:23.528Z,0.40
2023-05-04T01:21:28.902Z,0.40
2023-05-04T01:23:30.622Z,0.40
2023-05-04T01:25:49.504Z,0.50
2023-05-04T01:28:02.694Z,0.30
2023-05-04T01:30:20.881Z,0.40
2023-05-04T01:32:23.921Z,0.35
2023-05-04T01:34:25.629Z,0.30
2023-05-04T01:36:27.460Z,0.40
2023-05-04T01:38:29.019Z,0.40
2023-05-04T01:40:30.640Z,0.40
2023-05-04T01:42:32.240Z,0.40
2023-05-04T01:44:33.850Z,0.30
2023-05-04T01:46:35.482Z,0.30
2023-05-04T01:48:37.127Z,0.43
2023-05-04T01:50:38.714Z,0.30
2023-05-04T01:52:40.244Z,0.47
2023-05-04T01:54:41.778Z,0.43
2023-05-04T01:56:43.432Z,0.40
2023-05-04T01:58:45.059Z,0.40
2023-05-04T02:00:46.994Z,0.40
2023-05-04T02:02:48.680Z,0.40
2023-05-04T02:04:50.381Z,0.30
2023-05-04T02:06:51.941Z,0.40
2023-05-04T02:08:53.600Z,0.32
2023-05-04T02:10:55.137Z,0.30
2023-05-04T02:12:56.816Z,0.30
2023-05-04T02:14:58.473Z,0.40
2023-05-04T02:17:00.186Z,0.40
2023-05-04T02:19:01.858Z,0.45
2023-05-04T02:21:03.716Z,0.40
2023-05-04T02:23:05.284Z,0.40
2023-05-04T02:25:07.569Z,0.30
2023-05-04T02:27:09.150Z,0.40
2023-05-04T02:29:10.989Z,0.40
2023-05-04T02:31:12.552Z,0.60
2023-05-04T02:33:14.274Z,0.40
2023-05-04T02:35:16.027Z,0.43
2023-05-04T02:37:17.854Z,0.43
2023-05-04T02:39:19.375Z,0.40
2023-05-04T02:41:21.276Z,0.43
2023-05-04T02:43:22.930Z,0.40
2023-05-04T02:45:27.365Z,0.40
2023-05-04T02:47:29.180Z,0.40
2023-05-04T02:49:31.061Z,0.40
2023-05-04T02:51:32.752Z,0.50
2023-05-04T02:53:34.354Z,0.40
2023-05-04T02:55:36.273Z,0.43
2023-05-04T02:57:37.923Z,0.50
2023-05-04T02:59:39.560Z,0.40
2023-05-04T03:01:41.221Z,0.50
2023-05-04T03:03:42.797Z,0.40
2023-05-04T03:05:44.381Z,0.70
2023-05-04T03:07:46.028Z,0.50
2023-05-04T03:09:48.052Z,0.38
2023-05-04T03:11:49.857Z,0.40
2023-05-04T03:13:51.455Z,0.30
2023-05-04T03:15:53.058Z,0.50
2023-05-04T03:17:54.772Z,0.45
2023-05-04T03:19:56.411Z,0.60
2023-05-04T03:22:00.632Z,0.50
2023-05-04T03:24:02.226Z,0.35
2023-05-04T03:26:03.965Z,0.50
2023-05-04T03:28:05.793Z,0.40
2023-05-04T03:30:08.351Z,0.50
2023-05-04T03:32:10.051Z,0.50
2023-05-04T03:34:12.820Z,0.50
2023-05-04T03:36:14.466Z,0.50
2023-05-04T03:38:16.665Z,0.50
2023-05-04T03:40:22.852Z,0.47
2023-05-04T03:42:24.560Z,0.50
2023-05-04T03:44:26.217Z,0.50
2023-05-04T03:46:28.127Z,0.50
2023-05-04T03:48:30.010Z,0.50
2023-05-04T03:50:31.980Z,0.50
2023-05-04T03:52:33.513Z,0.52
2023-05-04T03:54:35.222Z,0.50
2023-05-04T03:56:36.826Z,0.60
2023-05-04T03:58:38.453Z,0.55
2023-05-04T04:00:40.068Z,0.60
2023-05-04T04:02:41.930Z,0.60
2023-05-04T04:04:43.702Z,0.47
2023-05-04T04:06:45.893Z,0.40
2023-05-04T04:08:47.520Z,0.40
2023-05-04T04:10:49.190Z,0.52
2023-05-04T04:12:50.942Z,0.50
2023-05-04T04:14:52.646Z,0.52
2023-05-04T04:16:54.248Z,0.40
2023-05-04T04:18:56.006Z,0.50
2023-05-04T04:20:57.798Z,0.50
2023-05-04T04:22:59.363Z,0.50
2023-05-04T04:25:01.103Z,0.55
2023-05-04T04:27:02.816Z,0.60
2023-05-04T04:29:04.376Z,0.40
2023-05-04T04:31:06.128Z,0.63
2023-05-04T04:33:08.697Z,0.50
2023-05-04T04:35:10.395Z,0.50
2023-05-04T04:37:11.988Z,0.60
2023-05-04T04:39:13.539Z,0.40
2023-05-04T04:41:15.577Z,0.50
2023-05-04T04:43:18.971Z,0.50
2023-05-04T04:45:20.656Z,0.40
2023-05-04T04:47:22.669Z,0.50
2023-05-04T04:49:24.358Z,0.50
2023-05-04T04:51:26.554Z,0.60
2023-05-04T04:53:28.409Z,0.60
2023-05-04T04:55:30.203Z,0.50
2023-05-04T04:57:32.024Z,0.52
2023-05-04T04:59:33.751Z,0.50
2023-05-04T05:01:35.420Z,0.50
2023-05-04T05:03:37.237Z,0.50
2023-05-04T05:05:38.938Z,0.47
2023-05-04T05:07:40.516Z,0.43
2023-05-04T05:09:42.874Z,0.50
2023-05-04T05:11:44.409Z,0.45
2023-05-04T05:13:46.092Z,0.50
2023-05-04T05:15:47.816Z,0.50
2023-05-04T05:17:51.950Z,0.50
2023-05-04T05:19:53.820Z,0.40
2023-05-04T05:21:56.928Z,0.52
2023-05-04T05:23:58.617Z,0.50
2023-05-04T05:26:02.060Z,0.50
2023-05-04T05:28:05.515Z,0.50
2023-05-04T05:30:07.975Z,0.52
2023-05-04T05:32:09.726Z,0.50
2023-05-04T05:34:11.236Z,0.40
2023-05-04T05:36:14.422Z,0.60
2023-05-04T05:38:16.225Z,0.60
2023-05-04T05:40:19.241Z,0.45
2023-05-04T05:42:21.315Z,0.50
2023-05-04T05:44:22.938Z,0.60
2023-05-04T05:46:25.132Z,0.65
2023-05-04T05:48:26.706Z,0.50
2023-05-04T05:50:28.331Z,0.57
2023-05-04T05:52:30.094Z,0.43
2023-05-04T05:54:32.131Z,0.55
2023-05-04T05:56:33.706Z,0.40
2023-05-04T05:58:35.299Z,0.50
2023-05-04T06:00:36.905Z,0.50
2023-05-04T06:02:38.813Z,0.60
2023-05-04T06:04:41.953Z,0.50
2023-05-04T06:06:45.739Z,0.50
2023-05-04T06:08:47.714Z,0.40
2023-05-04T06:10:50.403Z,0.57
2023-05-04T06:12:52.207Z,0.50
2023-05-04T06:14:54.078Z,0.60
2023-05-04T06:16:55.727Z,0.40
2023-05-04T06:18:57.458Z,0.50
2023-05-04T06:21:00.442Z,0.50
2023-05-04T06:23:02.060Z,0.60
2023-05-04T06:25:06.060Z,0.43
2023-05-04T06:27:09.817Z,0.50
2023-05-04T06:29:11.462Z,0.50
2023-05-04T06:31:13.597Z,0.50
2023-05-04T06:33:15.230Z,0.50
2023-05-04T06:35:17.057Z,0.50
2023-05-04T06:37:18.655Z,0.50
2023-05-04T06:39:20.210Z,0.50
2023-05-04T06:41:21.977Z,0.47
2023-05-04T06:43:23.811Z,0.40
2023-05-04T06:45:25.608Z,0.60
2023-05-04T06:47:27.229Z,0.47
2023-05-04T06:49:32.192Z,0.40
2023-05-04T06:51:37.440Z,0.40
2023-05-04T06:53:39.165Z,0.60
2023-05-04T06:55:40.905Z,0.50
2023-05-04T06:57:42.463Z,0.50
2023-05-04T06:59:43.984Z,0.43
2023-05-04T07:01:47.246Z,0.55
2023-05-04T07:03:48.940Z,0.57
2023-05-04T07:05:51.059Z,0.60
2023-05-04T07:07:52.758Z,0.60
2023-05-04T07:09:54.566Z,0.40
2023-05-04T07:11:56.238Z,0.60
2023-05-04T07:13:58.882Z,0.47
2023-05-04T07:16:00.647Z,0.50
2023-05-04T07:18:02.461Z,0.40
2023-05-04T07:20:05.681Z,0.60
2023-05-04T07:22:07.694Z,0.50
2023-05-04T07:24:09.654Z,0.50
2023-05-04T07:26:11.472Z,0.50
2023-05-04T07:28:13.076Z,0.50
2023-05-04T07:30:14.919Z,0.60
2023-05-04T07:32:17.682Z,0.60
2023-05-04T07:34:20.162Z,0.50
2023-05-04T07:36:24.904Z,0.50
2023-05-04T07:38:29.325Z,0.50
2023-05-04T07:40:30.964Z,0.60
2023-05-04T07:42:32.717Z,0.50
2023-05-04T07:44:34.401Z,0.50
2023-05-04T07:46:36.077Z,0.50
2023-05-04T07:48:37.757Z,0.50
2023-05-04T07:50:39.558Z,0.50
2023-05-04T07:52:41.101Z,0.50
2023-05-04T07:54:42.698Z,0.50
2023-05-04T07:56:44.243Z,0.57
2023-05-04T07:58:47.484Z,0.50
2023-05-04T08:00:50.252Z,0.50
2023-05-04T08:02:52.088Z,0.50
2023-05-04T08:04:53.666Z,0.40
2023-05-04T08:06:55.407Z,0.52
2023-05-04T08:08:57.130Z,0.50
2023-05-04T08:11:08.448Z,0.50
2023-05-04T08:13:18.062Z,0.52
2023-05-04T08:15:19.753Z,0.50
2023-05-04T08:17:21.630Z,0.30
2023-05-04T08:19:23.260Z,0.50
2023-05-04T08:21:25.128Z,0.50
2023-05-04T08:23:27.499Z,0.50
2023-05-04T08:25:29.509Z,0.50
2023-05-04T08:27:31.079Z,0.50
2023-05-04T08:29:32.661Z,0.40
2023-05-04T08:31:35.039Z,0.50
2023-05-04T08:33:36.696Z,0.50
2023-05-04T08:35:38.594Z,0.57
2023-05-04T08:37:40.351Z,0.60
2023-05-04T08:39:42.135Z,0.52
2023-05-04T08:41:44.336Z,0.50
2023-05-04T08:43:46.739Z,0.68
2023-05-04T08:45:49.674Z,0.50
2023-05-04T08:47:51.615Z,0.60
2023-05-04T08:49:56.818Z,0.57
2023-05-04T08:51:59.287Z,0.52
2023-05-04T08:54:01.896Z,0.70
2023-05-04T08:56:07.666Z,0.57
2023-05-04T08:58:14.077Z,0.55
2023-05-04T09:00:16.910Z,0.80
2023-05-04T09:02:21.349Z,0.70
2023-05-04T09:04:23.432Z,0.70
2023-05-04T09:06:25.622Z,0.60
2023-05-04T09:08:27.325Z,0.70
2023-05-04T09:10:29.761Z,0.57
2023-05-04T09:12:31.622Z,0.68
2023-05-04T09:14:34.687Z,0.70
2023-05-04T09:16:37.747Z,0.52
2023-05-04T09:18:41.308Z,0.73
2023-05-04T09:20:47.180Z,0.70
2023-05-04T09:23:08.762Z,0.70
2023-05-04T09:25:12.854Z,0.57
2023-05-04T09:27:18.576Z,0.60
2023-05-04T09:29:22.087Z,0.70
2023-05-04T09:31:24.310Z,0.57
2023-05-04T09:33:29.688Z,0.60
2023-05-04T09:35:33.965Z,0.70
2023-05-04T09:37:46.755Z,0.60
2023-05-04T09:39:53.857Z,0.60
2023-05-04T09:41:57.808Z,0.60
2023-05-04T09:43:59.506Z,0.63
2023-05-04T09:46:01.786Z,0.60
2023-05-04T09:48:15.180Z,0.57
2023-05-04T09:50:26.889Z,0.60
2023-05-04T09:52:31.078Z,0.70
2023-05-04T09:54:39.017Z,0.70
2023-05-04T09:56:49.294Z,0.50
2023-05-04T09:58:51.698Z,0.65
2023-05-04T10:00:53.800Z,0.80
2023-05-04T10:02:58.693Z,0.65
2023-05-04T10:05:01.447Z,0.57
2023-05-04T10:07:04.528Z,0.77
2023-05-04T10:09:06.618Z,0.60
2023-05-04T10:11:10.484Z,0.65
2023-05-04T10:13:12.574Z,0.68
2023-05-04T10:15:15.990Z,0.65
2023-05-04T10:17:35.172Z,0.70
2023-05-04T10:19:54.911Z,0.52
2023-05-04T10:22:05.870Z,0.70
2023-05-04T10:24:38.553Z,0.63
2023-05-04T10:26:55.164Z,0.60
2023-05-04T10:29:23.257Z,0.70
2023-05-04T10:31:25.730Z,0.60
2023-05-04T10:33:41.270Z,0.55
2023-05-04T10:35:53.232Z,0.80
2023-05-04T10:37:56.023Z,0.77
2023-05-04T10:39:58.645Z,0.70
2023-05-04T10:42:05.848Z,0.70
2023-05-04T10:44:09.929Z,0.73
2023-05-04T10:46:22.264Z,0.50
2023-05-04T10:48:34.871Z,0.70
2023-05-04T10:50:47.274Z,0.60
2023-05-04T10:52:50.874Z,0.68
2023-05-04T10:55:00.801Z,0.70
2023-05-04T10:57:07.475Z,0.50
2023-05-04T10:59:10.371Z,0.60
2023-05-04T11:01:13.278Z,0.60
2023-05-04T11:03:15.588Z,0.50
2023-05-04T11:05:20.078Z,0.70
2023-05-04T11:07:33.790Z,0.63
2023-05-04T11:09:42.445Z,0.70
2023-05-04T11:11:44.111Z,0.40
2023-05-04T11:13:48.714Z,0.68
2023-05-04T11:15:51.995Z,0.70
2023-05-04T11:17:53.589Z,0.70
2023-05-04T11:19:55.404Z,0.50
2023-05-04T11:21:56.987Z,0.65
2023-05-04T11:24:00.140Z,0.65
2023-05-04T11:26:07.433Z,0.60
2023-05-04T11:28:10.289Z,0.70
2023-05-04T11:30:16.127Z,0.60
2023-05-04T11:32:17.968Z,0.73
2023-05-04T11:34:20.922Z,0.70
2023-05-04T11:36:23.251Z,0.68
2023-05-04T11:38:25.254Z,0.60
2023-05-04T11:40:27.361Z,0.70
2023-05-04T11:42:29.018Z,0.60
2023-05-04T11:44:30.612Z,0.68
2023-05-04T11:46:34.378Z,0.70
2023-05-04T11:48:39.880Z,0.68
2023-05-04T11:50:41.758Z,0.65
2023-05-04T11:52:44.547Z,0.60
2023-05-04T11:54:56.122Z,0.60
2023-05-04T11:56:58.694Z,0.50
2023-05-04T11:59:08.117Z,0.70
2023-05-04T12:01:09.799Z,0.52
2023-05-04T12:03:29.946Z,0.68
2023-05-04T12:05:37.636Z,0.40
2023-05-04T12:07:39.240Z,0.60
2023-05-04T12:09:48.385Z,0.45
2023-05-04T12:11:56.412Z,0.55
2023-05-04T12:14:17.186Z,0.70
2023-05-04T12:16:19.834Z,0.50
2023-05-04T12:18:23.055Z,0.57
2023-05-04T12:20:29.809Z,0.63
2023-05-04T12:22:33.108Z,0.63
2023-05-04T12:24:35.504Z,0.60
2023-05-04T12:26:37.906Z,0.50
2023-05-04T12:28:41.913Z,0.52
2023-05-04T12:30:43.400Z,0.60
2023-05-04T12:32:45.326Z,0.57
2023-05-04T12:34:47.402Z,0.60
2023-05-04T12:36:51.019Z,0.60
2023-05-04T12:38:52.866Z,0.68
2023-05-04T12:40:55.871Z,0.60
2023-05-04T12:42:57.476Z,0.60
2023-05-04T12:44:59.575Z,0.60
2023-05-04T12:47:01.556Z,0.50
2023-05-04T12:49:03.155Z,0.60
2023-05-04T12:51:05.178Z,0.60
2023-05-04T12:53:07.381Z,0.60
2023-05-04T12:55:09.168Z,0.45
2023-05-04T12:57:14.727Z,0.50
2023-05-04T12:59:16.260Z,0.40
2023-05-04T13:01:18.116Z,0.50
2023-05-04T13:03:19.889Z,0.60
2023-05-04T13:05:23.362Z,0.47
2023-05-04T13:07:25.109Z,0.40
2023-05-04T13:09:27.526Z,0.47
2023-05-04T13:11:29.128Z,0.57
2023-05-04T13:13:30.832Z,0.60
2023-05-04T13:15:33.286Z,0.50
2023-05-04T13:17:35.147Z,0.60
2023-05-04T13:19:36.774Z,0.47
2023-05-04T13:21:38.659Z,0.50
2023-05-04T13:23:40.223Z,0.50
2023-05-04T13:25:42.187Z,0.50
2023-05-04T13:27:44.083Z,0.55
2023-05-04T13:29:45.861Z,0.60
2023-05-04T13:31:47.614Z,0.70
2023-05-04T13:33:50.578Z,0.50
2023-05-04T13:35:52.143Z,0.50
2023-05-04T13:37:53.808Z,0.55
2023-05-04T13:39:56.290Z,0.65
2023-05-04T13:41:57.961Z,0.70
2023-05-04T13:43:59.575Z,0.50
2023-05-04T13:46:04.824Z,0.50
2023-05-04T13:48:06.802Z,0.60
2023-05-04T13:50:09.103Z,0.63
2023-05-04T13:52:10.882Z,0.70
2023-05-04T13:54:12.914Z,0.70
2023-05-04T13:56:14.664Z,0.60
2023-05-04T13:58:16.369Z,0.60
2023-05-04T14:00:18.330Z,0.50
2023-05-04T14:02:20.382Z,0.60
2023-05-04T14:04:22.798Z,0.60
2023-05-04T14:06:26.014Z,0.65
2023-05-04T14:08:27.592Z,0.60
2023-05-04T14:10:29.231Z,0.55
2023-05-04T14:12:31.023Z,0.70
2023-05-04T14:14:32.575Z,0.60
2023-05-04T14:16:36.804Z,0.57
2023-05-04T14:18:39.287Z,0.70
2023-05-04T14:20:41.019Z,0.63
2023-05-04T14:22:42.912Z,0.70
2023-05-04T14:24:44.556Z,0.60
2023-05-04T14:26:46.264Z,0.60
2023-05-04T14:28:48.660Z,0.60
2023-05-04T14:30:50.917Z,0.63
2023-05-04T14:32:54.089Z,0.50
2023-05-04T14:35:08.503Z,0.60
2023-05-04T14:37:10.547Z,0.68
2023-05-04T14:39:12.510Z,0.50
2023-05-04T14:41:15.336Z,0.77
2023-05-04T14:43:16.905Z,0.55
2023-05-04T14:45:18.630Z,0.80
2023-05-04T14:47:20.221Z,0.90
2023-05-04T14:49:35.773Z,1.00
2023-05-04T14:51:39.217Z,1.17
2023-05-04T14:53:41.290Z,1.20
2023-05-04T14:55:43.467Z,1.30
2023-05-04T14:57:45.361Z,1.10
2023-05-04T14:59:46.987Z,1.02
2023-05-04T15:01:48.854Z,0.82
2023-05-04T15:03:50.806Z,0.80
2023-05-04T15:05:52.787Z,0.68
2023-05-04T15:07:54.339Z,0.80
2023-05-04T15:09:55.921Z,0.70
2023-05-04T15:11:57.954Z,0.50
2023-05-04T15:13:59.610Z,0.50
2023-05-04T15:16:01.418Z,0.60
2023-05-04T15:18:03.537Z,0.70
2023-05-04T15:20:06.516Z,0.60
2023-05-04T15:22:08.481Z,0.50
2023-05-04T15:24:10.387Z,0.60
2023-05-04T15:26:12.880Z,0.50
2023-05-04T15:28:14.462Z,0.52
2023-05-04T15:30:16.507Z,0.60
2023-05-04T15:32:18.196Z,0.60
2023-05-04T15:34:19.928Z,0.60
2023-05-04T15:36:21.595Z,0.55
2023-05-04T15:38:23.395Z,0.50
2023-05-04T15:40:25.050Z,0.60
2023-05-04T15:42:26.740Z,0.40
2023-05-04T15:44:28.434Z,0.45
2023-05-04T15:46:31.233Z,0.40
2023-05-04T15:48:32.908Z,0.40
2023-05-04T15:50:34.427Z,0.40
2023-05-04T15:52:36.139Z,0.40
2023-05-04T15:54:37.736Z,0.50
2023-05-04T15:56:39.448Z,0.40
2023-05-04T15:58:41.338Z,0.40
2023-05-04T16:00:42.902Z,0.40
2023-05-04T16:02:44.727Z,0.40
2023-05-04T16:04:46.326Z,0.30
2023-05-04T16:06:47.872Z,0.30
2023-05-04T16:08:49.577Z,0.40
2023-05-04T16:10:53.307Z,0.45
2023-05-04T16:12:55.238Z,0.30
2023-05-04T16:14:56.939Z,0.20
2023-05-04T16:17:01.586Z,0.40
2023-05-04T16:19:03.452Z,0.30
2023-05-04T16:21:05.114Z,0.40
2023-05-04T16:23:06.707Z,0.32
2023-05-04T16:25:10.850Z,0.50
2023-05-04T16:27:13.018Z,0.40
2023-05-04T16:29:15.876Z,0.47
2023-05-04T16:31:17.723Z,0.30
2023-05-04T16:33:19.792Z,0.43
2023-05-04T16:35:21.589Z,0.40
2023-05-04T16:37:23.275Z,0.32
2023-05-04T16:39:34.072Z,0.45
2023-05-04T16:41:36.491Z,0.47
2023-05-04T16:43:38.112Z,0.50
2023-05-04T16:45:39.677Z,0.40
2023-05-04T16:47:42.703Z,0.40
2023-05-04T16:49:44.465Z,0.40
2023-05-04T16:51:46.084Z,0.40
2023-05-04T16:53:48.098Z,0.40
2023-05-04T16:55:51.012Z,0.30
2023-05-04T16:57:59.356Z,0.45
2023-05-04T17:00:01.267Z,0.30
2023-05-04T17:02:03.072Z,0.40
2023-05-04T17:04:04.846Z,0.43
2023-05-04T17:06:06.731Z,0.40
2023-05-04T17:08:08.401Z,0.40
2023-05-04T17:10:10.617Z,0.30
2023-05-04T17:12:12.818Z,0.30
2023-05-04T17:14:14.556Z,0.30
2023-05-04T17:16:16.161Z,0.35
2023-05-04T17:18:17.870Z,0.30
2023-05-04T17:20:19.738Z,0.30
2023-05-04T17:22:21.871Z,0.30
2023-05-04T17:24:23.537Z,0.30
2023-05-04T17:26:25.123Z,0.20
2023-05-04T17:28:26.675Z,0.30
2023-05-04T17:30:28.223Z,0.40
2023-05-04T17:32:30.909Z,0.20
2023-05-04T17:34:32.647Z,0.30
2023-05-04T17:36:34.223Z,0.40
2023-05-04T17:38:35.820Z,0.40
2023-05-04T17:40:37.641Z,0.40
2023-05-04T17:42:39.268Z,0.20
2023-05-04T17:44:40.990Z,0.30
2023-05-04T17:46:42.911Z,0.30
2023-05-04T17:48:44.798Z,0.30
2023-05-04T17:50:46.481Z,0.40
2023-05-04T17:52:56.468Z,0.30
2023-05-04T17:54:58.199Z,0.20
2023-05-04T17:57:00.038Z,0.30
2023-05-04T17:59:01.594Z,0.30
2023-05-04T18:01:03.289Z,0.30
2023-05-04T18:03:05.375Z,0.30
2023-05-04T18:05:07.714Z,0.30
2023-05-04T18:07:09.613Z,0.20
2023-05-04T18:09:11.733Z,0.30
2023-05-04T18:11:13.409Z,0.30
2023-05-04T18:13:15.319Z,0.20
2023-05-04T18:15:18.335Z,0.20
2023-05-04T18:17:20.104Z,0.17
2023-05-04T18:19:24.793Z,0.17
2023-05-04T18:21:27.737Z,0.20
2023-05-04T18:23:30.081Z,0.20
2023-05-04T18:25:31.856Z,0.20
2023-05-04T18:27:34.587Z,0.30
2023-05-04T18:29:36.355Z,0.20
2023-05-04T18:31:37.999Z,0.20
2023-05-04T18:33:39.859Z,0.20
2023-05-04T18:35:41.832Z,0.22
2023-05-04T18:37:43.366Z,0.20
2023-05-04T18:39:44.939Z,0.20
2023-05-04T18:41:46.639Z,0.10
2023-05-04T18:43:48.697Z,0.20
2023-05-04T18:45:50.401Z,0.10
2023-05-04T18:47:52.235Z,0.10
2023-05-04T18:49:56.095Z,0.20
2023-05-04T18:51:57.682Z,0.20
2023-05-04T18:53:59.375Z,0.20
2023-05-04T18:56:04.377Z,0.22
2023-05-04T18:58:05.997Z,0.25
2023-05-04T19:00:09.238Z,0.20
2023-05-04T19:02:11.154Z,0.13
2023-05-04T19:04:12.723Z,0.20
2023-05-04T19:06:14.305Z,0.20
2023-05-04T19:08:16.127Z,0.10
2023-05-04T19:10:17.826Z,0.10
2023-05-04T19:12:20.077Z,0.20
2023-05-04T19:14:21.914Z,0.20
2023-05-04T19:16:23.530Z,0.20
2023-05-04T19:18:25.248Z,0.20
2023-05-04T19:20:27.643Z,0.10
2023-05-04T19:22:29.906Z,0.10
2023-05-04T19:24:31.567Z,0.10
2023-05-04T19:26:33.048Z,0.10
2023-05-04T19:28:34.772Z,0.15
2023-05-04T19:30:37.089Z,0.10
2023-05-04T19:32:38.751Z,0.20
2023-05-04T19:34:42.945Z,0.10
2023-05-04T19:36:44.545Z,0.00
2023-05-04T19:38:46.254Z,0.10
2023-05-04T19:40:47.838Z,0.20
2023-05-04T19:42:49.509Z,0.08
2023-05-04T19:44:51.406Z,0.10
2023-05-04T19:46:53.074Z,0.10
2023-05-04T19:48:54.657Z,0.10
2023-05-04T19:50:56.182Z,0.10
2023-05-04T19:52:57.745Z,0.10
2023-05-04T19:54:59.572Z,0.10
2023-05-04T19:57:01.156Z,0.10
2023-05-04T19:59:02.754Z,0.20
2023-05-04T20:01:04.371Z,0.20
2023-05-04T20:03:06.684Z,0.20
2023-05-04T20:05:08.313Z,0.10
2023-05-04T20:07:09.888Z,0.10
2023-05-04T20:09:11.452Z,0.10
2023-05-04T20:11:13.181Z,0.17
2023-05-04T20:13:14.941Z,0.20
2023-05-04T20:15:16.602Z,0.10
2023-05-04T20:17:18.245Z,0.20
2023-05-04T20:19:19.873Z,0.10
2023-05-04T20:21:21.581Z,0.10
2023-05-04T20:23:23.193Z,0.20
2023-05-04T20:25:24.893Z,0.10
2023-05-04T20:27:26.435Z,0.20
2023-05-04T20:29:28.098Z,0.10
2023-05-04T20:31:30.784Z,0.10
2023-05-04T20:33:32.397Z,0.10
2023-05-04T20:35:35.289Z,0.10
2023-05-04T20:37:37.162Z,0.20
2023-05-04T20:39:38.811Z,0.10
2023-05-04T20:41:40.959Z,0.20
2023-05-04T20:43:42.707Z,0.10
2023-05-04T20:45:44.309Z,0.10
2023-05-04T20:47:45.913Z,0.20
2023-05-04T20:49:47.550Z,0.10
2023-05-04T20:51:49.189Z,0.10
2023-05-04T20:53:50.862Z,0.13
2023-05-04T20:55:52.971Z,0.20
2023-05-04T20:57:54.532Z,0.10
2023-05-04T20:59:56.429Z,0.10
2023-05-04T21:01:58.197Z,0.10
2023-05-04T21:04:00.065Z,0.20
2023-05-04T21:06:02.316Z,0.10
2023-05-04T21:08:04.031Z,0.20
2023-05-04T21:10:06.481Z,0.10
2023-05-04T21:12:08.266Z,0.10
2023-05-04T21:14:10.009Z,0.20
2023-05-04T21:16:11.726Z,0.10
2023-05-04T21:18:13.422Z,0.20
2023-05-04T21:20:15.500Z,0.20
2023-05-04T21:22:17.719Z,0.10
2023-05-04T21:24:19.427Z,0.13
2023-05-04T21:26:20.906Z,0.10
2023-05-04T21:28:22.512Z,0.15
2023-05-04T21:30:24.400Z,0.20
2023-05-04T21:32:27.399Z,0.20
2023-05-04T21:34:29.860Z,0.10
2023-05-04T21:36:31.785Z,0.20
2023-05-04T21:38:33.333Z,0.20
2023-05-04T21:40:35.047Z,0.20
2023-05-04T21:42:36.653Z,0.20
2023-05-04T21:44:38.199Z,0.20
2023-05-04T21:46:39.780Z,0.20
2023-05-04T21:48:41.628Z,0.10
2023-05-04T21:50:43.332Z,0.10
2023-05-04T21:52:44.849Z,0.20
2023-05-04T21:54:46.848Z,0.10
2023-05-04T21:56:48.461Z,0.20
2023-05-04T21:58:50.393Z,0.10
2023-05-04T22:00:52.755Z,0.20
2023-05-04T22:02:55.045Z,0.10
2023-05-04T22:04:56.713Z,0.10
2023-05-04T22:06:58.529Z,0.30
2023-05-04T22:09:00.168Z,0.10
2023-05-04T22:11:02.178Z,0.10
2023-05-04T22:13:03.794Z,0.20
2023-05-04T22:15:06.569Z,0.20
2023-05-04T22:17:08.284Z,0.10
2023-05-04T22:19:10.236Z,0.25
2023-05-04T22:21:11.777Z,0.10
2023-05-04T22:23:14.118Z,0.20
2023-05-04T22:25:16.014Z,0.10
2023-05-04T22:27:18.391Z,0.20
2023-05-04T22:29:19.888Z,0.20
2023-05-04T22:31:21.517Z,0.20
2023-05-04T22:33:23.090Z,0.10
2023-05-04T22:35:24.697Z,0.00
2023-05-04T22:37:26.936Z,0.10
2023-05-04T22:39:28.732Z,0.10
2023-05-04T22:41:30.391Z,0.20
2023-05-04T22:43:31.975Z,0.15
2023-05-04T22:45:35.868Z,0.20
2023-05-04T22:47:37.720Z,0.20
2023-05-04T22:49:39.307Z,0.20
2023-05-04T22:51:41.109Z,0.20
2023-05-04T22:53:42.809Z,0.10
2023-05-04T22:55:44.500Z,0.10
2023-05-04T22:57:46.198Z,0.10
2023-05-04T22:59:47.754Z,0.13
2023-05-04T23:01:50.157Z,0.20
2023-05-04T23:03:51.946Z,0.10
2023-05-04T23:05:53.979Z,0.10
2023-05-04T23:07:55.515Z,0.10
2023-05-04T23:09:57.434Z,0.17
2023-05-04T23:11:59.022Z,0.15
2023-05-04T23:14:00.999Z,0.20
2023-05-04T23:16:03.637Z,0.10
2023-05-04T23:18:05.706Z,0.20
2023-05-04T23:20:09.411Z,0.15
2023-05-04T23:22:11.145Z,0.20
2023-05-04T23:24:12.781Z,0.17
2023-05-04T23:26:14.417Z,0.10
2023-05-04T23:28:16.103Z,0.13
2023-05-04T23:30:17.965Z,0.08
2023-05-04T23:32:19.665Z,0.20
2023-05-04T23:34:21.398Z,0.10
2023-05-04T23:36:22.897Z,0.10
2023-05-04T23:38:24.483Z,0.00
2023-05-04T23:40:26.162Z,0.10
2023-05-04T23:42:27.740Z,0.20
2023-05-04T23:44:29.314Z,0.10
2023-05-04T23:46:30.918Z,0.15
2023-05-04T23:48:32.635Z,0.10
2023-05-04T23:50:34.315Z,0.10
2023-05-04T23:52:36.624Z,0.10
2023-05-04T23:54:38.190Z,0.20
2023-05-04T23:56:39.891Z,0.15
2023-05-04T23:58:41.735Z,0.10
